createdAt,value
2022-08-28T00:01:15.792Z,10.05
2022-08-28T00:03:39.109Z,7.97
2022-08-28T00:06:02.476Z,9.93
2022-08-28T00:08:27.215Z,9.00
2022-08-28T00:10:50.425Z,8.45
2022-08-28T00:13:18.591Z,11.43
2022-08-28T00:15:41.969Z,9.60
2022-08-28T00:18:05.673Z,11.33
2022-08-28T00:20:29.408Z,9.90
2022-08-28T00:22:54.713Z,11.30
2022-08-28T00:25:24.182Z,7.82
2022-08-28T00:27:57.441Z,8.18
2022-08-28T00:30:23.036Z,9.57
2022-08-28T00:32:46.498Z,10.02
2022-08-28T00:35:10.167Z,9.18
2022-08-28T00:37:33.758Z,9.57
2022-08-28T00:39:57.017Z,9.67
2022-08-28T00:42:21.722Z,9.75
2022-08-28T00:44:45.779Z,9.23
2022-08-28T00:47:10.146Z,9.02
2022-08-28T00:52:12.780Z,7.78
2022-08-28T00:54:37.931Z,8.88
2022-08-28T00:57:01.405Z,8.43
2022-08-28T00:59:26.959Z,8.65
2022-08-28T01:01:53.477Z,8.82
2022-08-28T01:04:17.804Z,9.27
2022-08-28T01:06:41.004Z,10.98
2022-08-28T01:09:04.470Z,10.27
2022-08-28T01:11:29.024Z,9.97
2022-08-28T01:13:54.435Z,10.10
2022-08-28T01:16:19.949Z,9.50
2022-08-28T01:18:43.437Z,9.95
2022-08-28T01:21:09.434Z,10.40
2022-08-28T01:23:53.304Z,10.27
2022-08-28T01:26:16.565Z,9.68
2022-08-28T01:28:40.050Z,9.65
2022-08-28T01:31:03.423Z,8.70
2022-08-28T01:33:27.827Z,10.00
2022-08-28T01:35:51.758Z,7.78
2022-08-28T01:38:20.182Z,7.95
2022-08-28T01:40:53.550Z,9.60
2022-08-28T01:43:18.293Z,8.38
2022-08-28T01:45:41.743Z,7.38
2022-08-28T01:48:05.518Z,9.77
2022-08-28T01:50:28.920Z,9.25
2022-08-28T01:52:52.123Z,9.30
2022-08-28T01:55:15.413Z,8.95
2022-08-28T01:57:45.910Z,8.38
2022-08-28T02:00:11.324Z,9.85
2022-08-28T02:02:35.244Z,9.57
2022-08-28T02:04:58.563Z,9.52
2022-08-28T02:07:21.801Z,10.25
2022-08-28T02:09:45.160Z,9.13
2022-08-28T02:12:08.623Z,9.52
2022-08-28T02:14:33.685Z,9.07
2022-08-28T02:16:57.072Z,11.70
2022-08-28T02:19:20.906Z,10.23
2022-08-28T02:21:44.222Z,10.15
2022-08-28T02:24:07.676Z,10.40
2022-08-28T02:26:31.815Z,11.13
2022-08-28T02:28:55.071Z,7.18
2022-08-28T02:31:20.138Z,8.15
2022-08-28T02:33:44.794Z,8.35
2022-08-28T02:36:08.830Z,9.48
2022-08-28T02:38:32.062Z,10.57
2022-08-28T02:40:55.570Z,10.20
2022-08-28T02:43:18.798Z,12.55
2022-08-28T02:45:42.171Z,11.82
2022-08-28T02:48:14.642Z,14.32
2022-08-28T02:50:40.580Z,12.65
2022-08-28T02:53:03.779Z,13.88
2022-08-28T02:55:31.303Z,17.05
2022-08-28T02:57:56.944Z,20.33
2022-08-28T03:00:21.343Z,27.77
2022-08-28T03:02:46.361Z,28.00
2022-08-28T03:05:11.331Z,23.70
2022-08-28T03:07:34.723Z,19.45
2022-08-28T03:09:58.017Z,19.20
2022-08-28T03:12:24.125Z,21.63
2022-08-28T03:14:47.414Z,18.13
2022-08-28T03:17:10.767Z,17.73
2022-08-28T03:19:33.984Z,16.70
2022-08-28T03:21:58.702Z,18.30
2022-08-28T03:24:21.994Z,12.75
2022-08-28T03:26:45.319Z,16.27
2022-08-28T03:29:08.513Z,15.13
2022-08-28T03:31:33.847Z,15.07
2022-08-28T03:33:57.582Z,16.05
2022-08-28T03:36:22.586Z,14.32
2022-08-28T03:38:47.250Z,14.02
2022-08-28T03:41:11.663Z,16.77
2022-08-28T03:45:59.240Z,16.02
2022-08-28T03:48:24.205Z,15.98
2022-08-28T03:50:47.662Z,17.20
2022-08-28T03:53:12.486Z,15.63
2022-08-28T03:55:37.104Z,17.07
2022-08-28T03:58:01.094Z,17.75
2022-08-28T04:00:24.418Z,17.40
2022-08-28T04:02:47.710Z,14.43
2022-08-28T04:05:11.299Z,14.85
2022-08-28T04:07:35.126Z,12.32
2022-08-28T04:09:58.478Z,17.90
2022-08-28T04:12:23.121Z,13.77
2022-08-28T04:14:46.391Z,16.92
2022-08-28T04:17:10.136Z,19.45
2022-08-28T04:19:33.748Z,16.80
2022-08-28T04:21:56.965Z,19.27
2022-08-28T04:24:20.314Z,15.25
2022-08-28T04:26:43.654Z,18.60
2022-08-28T04:29:08.255Z,15.25
2022-08-28T04:31:32.841Z,16.75
2022-08-28T04:33:56.534Z,17.58
2022-08-28T04:36:19.880Z,17.90
2022-08-28T04:38:44.236Z,18.58
2022-08-28T04:43:30.844Z,22.23
2022-08-28T04:45:55.533Z,25.58
2022-08-28T04:48:19.159Z,26.85
2022-08-28T04:50:43.138Z,43.88
2022-08-28T04:53:06.430Z,74.05
2022-08-28T04:55:53.891Z,93.35
2022-08-28T04:58:13.521Z,113.57
2022-08-28T05:00:38.291Z,119.28
2022-08-28T05:03:02.965Z,116.97
2022-08-28T05:05:26.317Z,118.13
2022-08-28T05:07:49.560Z,112.63
2022-08-28T05:10:12.920Z,102.63
2022-08-28T05:12:36.756Z,92.70
2022-08-28T05:15:00.071Z,83.93
2022-08-28T05:17:23.348Z,80.65
2022-08-28T05:19:48.433Z,72.68
2022-08-28T05:22:12.102Z,70.40
2022-08-28T05:24:35.670Z,65.50
2022-08-28T05:27:00.444Z,61.83
2022-08-28T05:29:23.642Z,62.47
2022-08-28T05:31:48.679Z,56.05
2022-08-28T05:34:11.960Z,59.03
2022-08-28T05:36:37.355Z,56.53
2022-08-28T05:39:00.588Z,52.78
2022-08-28T05:41:24.982Z,51.03
2022-08-28T05:43:48.245Z,49.38
2022-08-28T05:46:13.083Z,45.92
2022-08-28T05:48:39.074Z,46.15
2022-08-28T05:51:07.127Z,40.92
2022-08-28T05:53:31.850Z,42.20
2022-08-28T05:55:55.196Z,39.45
2022-08-28T05:58:31.858Z,36.10
2022-08-28T06:00:55.174Z,37.80
2022-08-28T06:03:18.451Z,36.95
2022-08-28T06:05:41.784Z,29.33
2022-08-28T06:08:05.102Z,33.22
2022-08-28T06:10:29.902Z,29.50
2022-08-28T06:12:53.179Z,30.10
2022-08-28T06:15:16.607Z,29.80
2022-08-28T06:17:40.379Z,28.40
2022-08-28T06:20:03.940Z,26.08
2022-08-28T06:22:27.182Z,25.07
2022-08-28T06:24:50.549Z,23.13
2022-08-28T06:27:15.202Z,25.70
2022-08-28T06:29:39.892Z,25.08
2022-08-28T06:32:04.601Z,22.50
2022-08-28T06:34:28.185Z,23.77
2022-08-28T06:36:54.025Z,22.42
2022-08-28T06:39:17.603Z,22.73
2022-08-28T06:41:43.192Z,22.98
2022-08-28T06:44:07.983Z,23.70
2022-08-28T06:46:33.278Z,20.98
2022-08-28T06:48:58.862Z,22.17
2022-08-28T06:51:23.171Z,17.80
2022-08-28T06:53:48.430Z,16.55
2022-08-28T06:56:13.665Z,19.35
2022-08-28T06:58:51.763Z,20.63
2022-08-28T07:01:17.867Z,17.58
2022-08-28T07:03:42.699Z,17.77
2022-08-28T07:06:08.561Z,18.67
2022-08-28T07:08:32.083Z,17.20
2022-08-28T07:10:55.305Z,18.00
2022-08-28T07:13:18.694Z,15.68
2022-08-28T07:15:42.052Z,16.10
2022-08-28T07:18:07.265Z,17.90
2022-08-28T07:20:30.559Z,16.80
2022-08-28T07:22:59.355Z,17.40
2022-08-28T07:25:23.083Z,17.08
2022-08-28T07:27:46.321Z,14.60
2022-08-28T07:30:13.168Z,14.85
2022-08-28T07:32:36.409Z,15.77
2022-08-28T07:35:01.184Z,15.53
2022-08-28T07:37:24.440Z,15.60
2022-08-28T07:39:47.704Z,14.43
2022-08-28T07:42:10.960Z,14.25
2022-08-28T07:44:50.849Z,14.20
2022-08-28T07:47:14.195Z,14.10
2022-08-28T07:49:37.506Z,14.02
2022-08-28T07:52:02.221Z,12.63
2022-08-28T07:54:25.707Z,11.85
2022-08-28T07:56:49.002Z,12.68
2022-08-28T07:59:12.408Z,10.63
2022-08-28T08:01:41.890Z,10.40
2022-08-28T08:04:05.793Z,13.00
2022-08-28T08:06:34.259Z,10.40
2022-08-28T08:08:59.971Z,11.57
2022-08-28T08:11:23.239Z,11.27
2022-08-28T08:13:50.876Z,12.38
2022-08-28T08:16:15.205Z,12.85
2022-08-28T08:21:01.619Z,12.02
2022-08-28T08:23:25.383Z,10.98
2022-08-28T08:25:56.872Z,10.98
2022-08-28T08:28:21.129Z,9.57
2022-08-28T08:30:44.401Z,10.23
2022-08-28T08:33:07.731Z,11.65
2022-08-28T08:35:30.938Z,10.35
2022-08-28T08:37:54.254Z,11.05
2022-08-28T08:40:19.637Z,10.63
2022-08-28T08:42:45.289Z,9.73
2022-08-28T08:45:09.349Z,10.45
2022-08-28T08:47:36.921Z,11.52
2022-08-28T08:50:01.506Z,11.60
2022-08-28T08:52:37.769Z,11.55
2022-08-28T08:55:11.757Z,12.02
2022-08-28T08:57:38.449Z,9.80
2022-08-28T09:00:03.245Z,12.43
2022-08-28T09:02:31.239Z,10.55
2022-08-28T09:04:56.449Z,10.18
2022-08-28T09:07:21.035Z,10.18
2022-08-28T09:09:46.065Z,9.10
2022-08-28T09:12:10.510Z,11.30
2022-08-28T09:14:38.177Z,9.73
2022-08-28T09:17:02.924Z,11.57
2022-08-28T09:19:26.187Z,9.93
2022-08-28T09:21:49.986Z,9.00
2022-08-28T09:24:18.764Z,10.48
2022-08-28T09:26:42.047Z,10.13
2022-08-28T09:29:07.634Z,9.25
2022-08-28T09:31:32.798Z,10.27
2022-08-28T09:33:57.541Z,10.75
2022-08-28T09:36:29.507Z,9.02
2022-08-28T09:39:10.970Z,9.68
2022-08-28T09:41:51.790Z,8.07
2022-08-28T09:44:15.985Z,11.48
2022-08-28T09:46:45.032Z,9.60
2022-08-28T09:49:11.967Z,9.25
2022-08-28T09:51:38.723Z,7.57
2022-08-28T09:54:03.202Z,9.25
2022-08-28T09:56:29.820Z,9.13
2022-08-28T09:58:54.735Z,12.38
2022-08-28T10:01:29.385Z,8.77
2022-08-28T10:03:54.498Z,7.78
2022-08-28T10:06:25.488Z,10.35
2022-08-28T10:08:57.648Z,11.30
2022-08-28T10:11:25.410Z,11.30
2022-08-28T10:13:53.976Z,10.73
2022-08-28T10:16:23.582Z,10.55
2022-08-28T10:18:48.524Z,10.50
2022-08-28T10:21:15.618Z,12.45
2022-08-28T10:23:57.442Z,11.27
2022-08-28T10:26:29.931Z,11.60
2022-08-28T10:28:59.904Z,10.35
2022-08-28T10:31:25.797Z,8.27
2022-08-28T10:33:55.477Z,9.65
2022-08-28T10:36:27.343Z,11.65
2022-08-28T10:39:03.039Z,8.82
2022-08-28T10:41:27.448Z,10.93
2022-08-28T10:46:15.970Z,8.40
2022-08-28T10:48:41.465Z,8.93
2022-08-28T10:51:07.327Z,8.15
2022-08-28T10:53:33.274Z,9.68
2022-08-28T10:55:59.522Z,9.85
2022-08-28T10:58:24.818Z,8.95
2022-08-28T11:00:49.090Z,8.32
2022-08-28T11:03:33.019Z,8.77
2022-08-28T11:06:01.122Z,8.68
2022-08-28T11:08:26.739Z,10.93
2022-08-28T11:10:50.824Z,9.20
2022-08-28T11:13:15.667Z,10.15
2022-08-28T11:16:00.257Z,10.85
2022-08-28T11:18:47.778Z,11.65
2022-08-28T11:21:14.272Z,9.10
2022-08-28T11:23:39.371Z,9.52
2022-08-28T11:26:05.226Z,9.75
2022-08-28T11:28:44.396Z,10.88
2022-08-28T11:31:38.515Z,8.75
2022-08-28T11:34:02.820Z,7.95
2022-08-28T11:39:18.911Z,8.57
2022-08-28T11:42:33.491Z,9.15
2022-08-28T11:44:58.154Z,10.40
2022-08-28T11:47:39.559Z,9.63
2022-08-28T11:50:05.809Z,9.10
2022-08-28T11:52:38.344Z,7.85
2022-08-28T11:55:06.692Z,8.80
2022-08-28T11:57:33.219Z,8.65
2022-08-28T12:00:04.734Z,8.55
2022-08-28T12:02:55.069Z,8.60
2022-08-28T12:05:40.942Z,7.85
2022-08-28T12:08:07.620Z,9.65
2022-08-28T12:10:53.338Z,9.60
2022-08-28T12:13:46.306Z,9.65
2022-08-28T12:16:10.984Z,9.73
2022-08-28T12:19:00.170Z,9.98
2022-08-28T12:21:24.189Z,9.07
2022-08-28T12:23:59.269Z,10.57
2022-08-28T12:26:24.777Z,9.05
2022-08-28T12:28:49.643Z,8.75
2022-08-28T12:32:04.190Z,8.13
2022-08-28T12:34:33.402Z,8.50
2022-08-28T12:36:58.071Z,7.78
2022-08-28T12:39:21.450Z,8.95
2022-08-28T12:41:44.763Z,8.77
2022-08-28T12:44:10.691Z,8.02
2022-08-28T12:46:38.051Z,9.63
2022-08-28T12:49:02.105Z,9.40
2022-08-28T12:51:26.660Z,9.30
2022-08-28T12:53:51.400Z,9.65
2022-08-28T12:56:17.066Z,8.35
2022-08-28T12:58:40.720Z,10.27
2022-08-28T13:01:06.612Z,10.32
2022-08-28T13:03:32.347Z,9.15
2022-08-28T13:06:02.141Z,10.70
2022-08-28T13:08:25.366Z,10.57
2022-08-28T13:10:49.724Z,13.25
2022-08-28T13:15:53.508Z,9.82
2022-08-28T13:18:55.356Z,10.20
2022-08-28T13:23:59.271Z,9.63
2022-08-28T13:26:27.312Z,10.18
2022-08-28T13:28:50.569Z,10.40
2022-08-28T13:31:23.463Z,10.05
2022-08-28T13:34:04.473Z,11.13
2022-08-28T13:36:27.716Z,12.32
2022-08-28T13:38:50.970Z,10.18
2022-08-28T13:41:14.290Z,11.32
2022-08-28T13:43:44.450Z,11.10
2022-08-28T13:46:07.993Z,10.45
2022-08-28T13:48:31.539Z,12.10
2022-08-28T13:50:59.369Z,9.93
2022-08-28T13:53:22.578Z,10.18
2022-08-28T13:55:45.961Z,10.38
2022-08-28T13:58:09.371Z,11.27
2022-08-28T14:00:33.318Z,11.87
2022-08-28T14:03:14.021Z,11.77
2022-08-28T14:05:37.513Z,10.18
2022-08-28T14:08:02.122Z,11.60
2022-08-28T14:10:25.410Z,8.85
2022-08-28T14:12:49.321Z,11.35
2022-08-28T14:15:12.906Z,11.05
2022-08-28T14:17:36.150Z,11.30
2022-08-28T14:20:00.328Z,10.57
2022-08-28T14:22:23.606Z,11.00
2022-08-28T14:24:48.636Z,10.40
2022-08-28T14:27:12.022Z,11.18
2022-08-28T14:29:35.282Z,11.07
2022-08-28T14:31:59.573Z,12.00
2022-08-28T14:36:46.366Z,11.38
2022-08-28T14:39:10.498Z,12.37
2022-08-28T14:41:35.398Z,9.93
2022-08-28T14:43:59.198Z,12.27
2022-08-28T14:46:23.752Z,10.93
2022-08-28T14:48:48.029Z,11.75
2022-08-28T14:51:11.279Z,11.65
2022-08-28T14:53:34.603Z,11.75
2022-08-28T14:55:57.925Z,11.57
2022-08-28T14:58:22.613Z,11.65
2022-08-28T15:00:47.194Z,11.90
2022-08-28T15:03:10.799Z,11.50
2022-08-28T15:05:34.469Z,10.70
2022-08-28T15:07:57.731Z,12.60
2022-08-28T15:10:21.057Z,10.52
2022-08-28T15:12:44.321Z,12.00
2022-08-28T15:15:10.062Z,10.93
2022-08-28T15:17:33.910Z,11.43
2022-08-28T15:20:00.471Z,11.25
2022-08-28T15:22:27.313Z,11.07
2022-08-28T15:24:50.974Z,11.57
2022-08-28T15:27:18.790Z,10.45
2022-08-28T15:29:42.071Z,10.55
2022-08-28T15:32:07.252Z,11.52
2022-08-28T15:34:30.549Z,10.73
2022-08-28T15:36:55.818Z,12.67
2022-08-28T15:39:36.718Z,10.65
2022-08-28T15:42:00.145Z,9.77
2022-08-28T15:44:23.390Z,9.93
2022-08-28T15:46:51.683Z,13.70
2022-08-28T15:49:16.345Z,12.43
2022-08-28T15:51:40.146Z,11.75
2022-08-28T15:54:03.510Z,10.83
2022-08-28T15:56:26.955Z,10.73
2022-08-28T15:58:50.233Z,11.77
2022-08-28T16:01:13.805Z,11.82
2022-08-28T16:03:37.294Z,12.48
2022-08-28T16:06:02.366Z,10.80
2022-08-28T16:08:25.614Z,10.63
2022-08-28T16:10:49.946Z,11.23
2022-08-28T16:15:36.564Z,11.25
2022-08-28T16:17:59.881Z,11.83
2022-08-28T16:20:23.174Z,11.18
2022-08-28T16:22:47.865Z,10.52
2022-08-28T16:25:12.982Z,11.23
2022-08-28T16:27:36.210Z,10.25
2022-08-28T16:29:59.529Z,12.50
2022-08-28T16:32:23.302Z,10.30
2022-08-28T16:34:46.570Z,11.18
2022-08-28T16:37:09.838Z,12.63
2022-08-28T16:39:34.597Z,10.88
2022-08-28T16:41:57.906Z,11.00
2022-08-28T16:44:21.151Z,11.02
2022-08-28T16:46:44.683Z,9.90
2022-08-28T16:49:07.945Z,11.10
2022-08-28T16:51:31.666Z,11.60
2022-08-28T16:53:54.953Z,10.90
2022-08-28T16:56:19.667Z,10.13
2022-08-28T16:58:43.160Z,12.20
2022-08-28T17:01:07.015Z,11.90
2022-08-28T17:05:54.164Z,9.38
2022-08-28T17:08:17.448Z,10.05
2022-08-28T17:10:40.776Z,10.13
2022-08-28T17:13:05.390Z,10.40
2022-08-28T17:15:28.905Z,10.25
2022-08-28T17:17:52.449Z,10.90
2022-08-28T17:20:29.679Z,11.75
2022-08-28T17:22:53.018Z,10.07
2022-08-28T17:25:16.571Z,9.60
2022-08-28T17:27:39.852Z,9.30
2022-08-28T17:30:05.242Z,10.95
2022-08-28T17:32:28.601Z,10.07
2022-08-28T17:34:51.854Z,9.70
2022-08-28T17:37:15.794Z,10.80
2022-08-28T17:39:39.146Z,9.48
2022-08-28T17:42:02.427Z,11.05
2022-08-28T17:44:26.095Z,10.10
2022-08-28T17:46:51.815Z,10.07
2022-08-28T17:49:15.131Z,10.13
2022-08-28T17:51:42.310Z,10.40
2022-08-28T17:54:07.242Z,10.55
2022-08-28T17:56:35.809Z,12.50
2022-08-28T17:58:59.498Z,11.05
2022-08-28T18:01:24.828Z,13.80
2022-08-28T18:03:53.513Z,11.25
2022-08-28T18:06:16.861Z,10.23
2022-08-28T18:08:40.183Z,11.98
2022-08-28T18:11:04.094Z,11.50
2022-08-28T18:13:27.469Z,9.70
2022-08-28T18:15:56.649Z,9.20
2022-08-28T18:18:20.479Z,11.00
2022-08-28T18:20:51.769Z,11.40
2022-08-28T18:23:17.169Z,10.55
2022-08-28T18:25:46.674Z,9.87
2022-08-28T18:28:17.772Z,10.40
2022-08-28T18:30:45.031Z,10.38
2022-08-28T18:35:32.392Z,8.85
2022-08-28T18:37:57.666Z,10.25
2022-08-28T18:40:21.315Z,11.68
2022-08-28T18:42:44.904Z,11.23
2022-08-28T18:45:09.305Z,10.70
2022-08-28T18:47:32.935Z,10.70
2022-08-28T18:49:56.451Z,9.00
2022-08-28T18:52:19.919Z,9.85
2022-08-28T18:54:44.816Z,10.15
2022-08-28T18:57:09.638Z,10.38
2022-08-28T18:59:34.925Z,10.27
2022-08-28T19:01:58.496Z,10.15
2022-08-28T19:04:21.908Z,11.90
2022-08-28T19:06:45.221Z,9.68
2022-08-28T19:09:09.796Z,10.13
2022-08-28T19:11:44.192Z,11.13
2022-08-28T19:14:07.477Z,8.95
2022-08-28T19:16:31.668Z,10.27
2022-08-28T19:18:55.752Z,8.45
2022-08-28T19:21:19.756Z,10.43
2022-08-28T19:23:44.600Z,9.95
2022-08-28T19:26:18.966Z,8.55
2022-08-28T19:28:45.408Z,10.95
2022-08-28T19:31:09.022Z,9.93
2022-08-28T19:33:32.364Z,11.65
2022-08-28T19:35:55.786Z,8.55
2022-08-28T19:38:19.088Z,8.80
2022-08-28T19:40:42.385Z,9.73
2022-08-28T19:43:05.945Z,8.43
2022-08-28T19:45:30.646Z,8.80
2022-08-28T19:47:53.982Z,10.00
2022-08-28T19:50:17.596Z,10.70
2022-08-28T19:52:41.166Z,10.00
2022-08-28T19:55:06.205Z,10.30
2022-08-28T19:57:29.657Z,9.38
2022-08-28T19:59:52.981Z,9.43
2022-08-28T20:02:17.742Z,9.40
2022-08-28T20:04:41.086Z,9.10
2022-08-28T20:07:04.880Z,8.65
2022-08-28T20:09:28.459Z,9.52
2022-08-28T20:11:52.479Z,10.20
2022-08-28T20:14:15.865Z,10.20
2022-08-28T20:16:40.362Z,9.20
2022-08-28T20:19:05.054Z,9.48
2022-08-28T20:21:37.397Z,9.13
2022-08-28T20:24:01.327Z,10.80
2022-08-28T20:26:24.559Z,9.32
2022-08-28T20:28:53.987Z,9.32
2022-08-28T20:31:18.244Z,9.55
2022-08-28T20:33:41.858Z,9.65
2022-08-28T20:36:07.662Z,9.13
2022-08-28T20:38:39.746Z,9.77
2022-08-28T20:41:07.206Z,9.55
2022-08-28T20:43:30.507Z,10.80
2022-08-28T20:45:53.811Z,10.15
2022-08-28T20:48:17.273Z,9.33
2022-08-28T20:50:40.557Z,10.32
2022-08-28T20:53:05.202Z,8.82
2022-08-28T20:55:28.490Z,9.52
2022-08-28T20:57:52.527Z,9.60
2022-08-28T21:00:15.983Z,10.25
2022-08-28T21:02:39.264Z,8.23
2022-08-28T21:05:02.704Z,10.55
2022-08-28T21:07:26.603Z,8.07
2022-08-28T21:10:05.181Z,8.95
2022-08-28T21:12:29.938Z,7.80
2022-08-28T21:14:53.450Z,8.98
2022-08-28T21:17:22.694Z,7.27
2022-08-28T21:19:53.690Z,9.05
2022-08-28T21:22:17.043Z,7.85
2022-08-28T21:24:42.966Z,8.00
2022-08-28T21:27:09.598Z,6.13
2022-08-28T21:29:32.912Z,7.57
2022-08-28T21:31:56.148Z,10.13
2022-08-28T21:34:19.479Z,6.13
2022-08-28T21:36:49.533Z,7.53
2022-08-28T21:39:13.559Z,6.65
2022-08-28T21:41:36.779Z,7.53
2022-08-28T21:44:01.473Z,8.18
2022-08-28T21:46:24.770Z,8.65
2022-08-28T21:48:49.321Z,8.60
2022-08-28T21:51:13.567Z,6.88
2022-08-28T21:55:59.987Z,7.10
2022-08-28T21:58:23.458Z,7.15
2022-08-28T22:00:49.060Z,7.60
2022-08-28T22:03:12.278Z,6.72
2022-08-28T22:05:35.621Z,6.95
2022-08-28T22:07:58.878Z,7.57
2022-08-28T22:10:23.010Z,7.13
2022-08-28T22:12:46.241Z,7.18
2022-08-28T22:15:09.880Z,6.18
2022-08-28T22:17:34.476Z,8.02
2022-08-28T22:19:57.854Z,6.68
2022-08-28T22:22:38.546Z,7.40
2022-08-28T22:25:01.839Z,7.75
2022-08-28T22:27:25.159Z,7.38
2022-08-28T22:29:48.386Z,6.13
2022-08-28T22:32:11.791Z,5.68
2022-08-28T22:34:38.982Z,5.70
2022-08-28T22:37:02.240Z,5.82
2022-08-28T22:39:25.508Z,6.10
2022-08-28T22:41:48.813Z,7.40
2022-08-28T22:44:12.082Z,6.70
2022-08-28T22:46:36.008Z,6.72
2022-08-28T22:48:59.340Z,6.90
2022-08-28T22:51:24.045Z,5.85
2022-08-28T22:53:47.453Z,6.45
2022-08-28T22:56:11.290Z,5.20
2022-08-28T22:58:34.607Z,6.93
2022-08-28T23:00:58.116Z,6.60
2022-08-28T23:03:21.418Z,6.72
2022-08-28T23:05:44.819Z,7.63
2022-08-28T23:08:09.483Z,5.65
2022-08-28T23:10:57.390Z,9.10
2022-08-28T23:13:16.204Z,5.93
2022-08-28T23:15:39.446Z,6.38
2022-08-28T23:18:03.653Z,6.50
2022-08-28T23:22:56.394Z,6.93
2022-08-28T23:25:23.671Z,5.53
2022-08-28T23:27:47.165Z,5.82
2022-08-28T23:30:10.979Z,6.30
2022-08-28T23:32:34.310Z,8.13
2022-08-28T23:34:57.518Z,6.65
2022-08-28T23:37:20.873Z,5.93
2022-08-28T23:39:45.870Z,8.30
2022-08-28T23:42:10.524Z,4.82
2022-08-28T23:44:33.744Z,6.18
2022-08-28T23:46:57.166Z,7.43
2022-08-28T23:49:24.908Z,5.70
2022-08-28T23:51:49.988Z,6.95
2022-08-28T23:54:15.547Z,5.38
2022-08-28T23:56:38.845Z,7.65
2022-08-28T23:59:03.856Z,5.97
